sensor_id;sensor_type;location;lat;lon;timestamp;P1;durP1;ratioP1;P2;durP2;ratioP2
25731;SDS011;13585;50.864;4.406;2023-09-08T00:01:32;6.30;;;4.70;;
25731;SDS011;13585;50.864;4.406;2023-09-08T00:03:58;6.07;;;4.35;;
25731;SDS011;13585;50.864;4.406;2023-09-08T00:06:24;6.28;;;4.18;;
25731;SDS011;13585;50.864;4.406;2023-09-08T00:08:49;6.13;;;4.85;;
25731;SDS011;13585;50.864;4.406;2023-09-08T00:11:15;6.80;;;4.82;;
25731;SDS011;13585;50.864;4.406;2023-09-08T00:13:40;6.95;;;4.93;;
25731;SDS011;13585;50.864;4.406;2023-09-08T00:16:06;5.72;;;4.97;;
25731;SDS011;13585;50.864;4.406;2023-09-08T00:18:35;5.85;;;4.63;;
25731;SDS011;13585;50.864;4.406;2023-09-08T00:21:00;7.32;;;4.20;;
25731;SDS011;13585;50.864;4.406;2023-09-08T00:23:26;5.10;;;4.22;;
25731;SDS011;13585;50.864;4.406;2023-09-08T00:25:53;6.10;;;4.55;;
25731;SDS011;13585;50.864;4.406;2023-09-08T00:28:19;7.55;;;4.70;;
25731;SDS011;13585;50.864;4.406;2023-09-08T00:30:44;5.10;;;4.60;;
25731;SDS011;13585;50.864;4.406;2023-09-08T00:33:10;6.40;;;4.65;;
25731;SDS011;13585;50.864;4.406;2023-09-08T00:35:38;5.45;;;4.32;;
25731;SDS011;13585;50.864;4.406;2023-09-08T00:38:03;6.07;;;4.63;;
25731;SDS011;13585;50.864;4.406;2023-09-08T00:40:29;6.60;;;4.25;;
25731;SDS011;13585;50.864;4.406;2023-09-08T00:42:55;6.32;;;4.75;;
25731;SDS011;13585;50.864;4.406;2023-09-08T00:45:20;6.70;;;4.35;;
25731;SDS011;13585;50.864;4.406;2023-09-08T00:47:47;5.60;;;4.45;;
25731;SDS011;13585;50.864;4.406;2023-09-08T00:50:13;5.13;;;4.40;;
25731;SDS011;13585;50.864;4.406;2023-09-08T00:52:39;5.55;;;4.22;;
25731;SDS011;13585;50.864;4.406;2023-09-08T00:55:04;5.45;;;4.20;;
25731;SDS011;13585;50.864;4.406;2023-09-08T00:57:31;5.28;;;4.55;;
25731;SDS011;13585;50.864;4.406;2023-09-08T00:59:57;7.10;;;4.43;;
25731;SDS011;13585;50.864;4.406;2023-09-08T01:02:23;5.15;;;4.10;;
25731;SDS011;13585;50.864;4.406;2023-09-08T01:04:49;4.97;;;4.45;;
25731;SDS011;13585;50.864;4.406;2023-09-08T01:07:15;5.10;;;4.07;;
25731;SDS011;13585;50.864;4.406;2023-09-08T01:09:41;4.55;;;4.00;;
25731;SDS011;13585;50.864;4.406;2023-09-08T01:12:07;5.70;;;4.07;;
25731;SDS011;13585;50.864;4.406;2023-09-08T01:14:33;7.40;;;4.75;;
25731;SDS011;13585;50.864;4.406;2023-09-08T01:17:08;5.15;;;4.35;;
25731;SDS011;13585;50.864;4.406;2023-09-08T01:19:34;7.47;;;5.22;;
25731;SDS011;13585;50.864;4.406;2023-09-08T01:27:10;6.03;;;4.47;;
25731;SDS011;13585;50.864;4.406;2023-09-08T01:29:39;4.95;;;4.22;;
25731;SDS011;13585;50.864;4.406;2023-09-08T01:32:06;5.03;;;4.38;;
25731;SDS011;13585;50.864;4.406;2023-09-08T01:34:33;6.13;;;4.75;;
25731;SDS011;13585;50.864;4.406;2023-09-08T01:37:01;4.95;;;4.20;;
25731;SDS011;13585;50.864;4.406;2023-09-08T01:39:29;6.05;;;4.20;;
25731;SDS011;13585;50.864;4.406;2023-09-08T01:41:57;4.43;;;3.90;;
25731;SDS011;13585;50.864;4.406;2023-09-08T01:44:23;5.13;;;4.10;;
25731;SDS011;13585;50.864;4.406;2023-09-08T01:46:49;5.13;;;4.50;;
25731;SDS011;13585;50.864;4.406;2023-09-08T01:49:16;5.97;;;4.75;;
25731;SDS011;13585;50.864;4.406;2023-09-08T01:51:42;5.53;;;4.25;;
25731;SDS011;13585;50.864;4.406;2023-09-08T01:54:07;6.03;;;4.47;;
25731;SDS011;13585;50.864;4.406;2023-09-08T01:56:33;5.40;;;4.53;;
25731;SDS011;13585;50.864;4.406;2023-09-08T01:58:58;4.78;;;4.28;;
25731;SDS011;13585;50.864;4.406;2023-09-08T02:01:24;7.82;;;4.40;;
25731;SDS011;13585;50.864;4.406;2023-09-08T02:03:50;6.13;;;4.30;;
25731;SDS011;13585;50.864;4.406;2023-09-08T02:06:16;4.82;;;4.32;;
25731;SDS011;13585;50.864;4.406;2023-09-08T02:08:41;5.22;;;4.40;;
25731;SDS011;13585;50.864;4.406;2023-09-08T02:11:07;5.32;;;4.43;;
25731;SDS011;13585;50.864;4.406;2023-09-08T02:13:32;5.22;;;4.20;;
25731;SDS011;13585;50.864;4.406;2023-09-08T02:15:58;4.68;;;4.18;;
25731;SDS011;13585;50.864;4.406;2023-09-08T02:18:25;6.03;;;4.20;;
25731;SDS011;13585;50.864;4.406;2023-09-08T02:20:50;5.90;;;4.72;;
25731;SDS011;13585;50.864;4.406;2023-09-08T02:23:16;5.65;;;4.85;;
25731;SDS011;13585;50.864;4.406;2023-09-08T02:25:42;5.25;;;4.20;;
25731;SDS011;13585;50.864;4.406;2023-09-08T02:28:08;4.75;;;4.18;;
25731;SDS011;13585;50.864;4.406;2023-09-08T02:30:33;5.35;;;4.45;;
25731;SDS011;13585;50.864;4.406;2023-09-08T02:32:59;4.78;;;4.13;;
25731;SDS011;13585;50.864;4.406;2023-09-08T02:35:24;4.88;;;4.30;;
25731;SDS011;13585;50.864;4.406;2023-09-08T02:37:50;5.82;;;3.95;;
25731;SDS011;13585;50.864;4.406;2023-09-08T02:40:16;4.88;;;4.28;;
25731;SDS011;13585;50.864;4.406;2023-09-08T02:42:41;7.60;;;4.22;;
25731;SDS011;13585;50.864;4.406;2023-09-08T02:45:07;5.53;;;4.20;;
25731;SDS011;13585;50.864;4.406;2023-09-08T02:47:32;4.32;;;3.92;;
25731;SDS011;13585;50.864;4.406;2023-09-08T02:49:58;5.30;;;4.32;;
25731;SDS011;13585;50.864;4.406;2023-09-08T02:52:24;5.25;;;3.92;;
25731;SDS011;13585;50.864;4.406;2023-09-08T02:54:49;4.80;;;4.22;;
25731;SDS011;13585;50.864;4.406;2023-09-08T02:57:15;7.47;;;4.47;;
25731;SDS011;13585;50.864;4.406;2023-09-08T02:59:40;5.05;;;4.43;;
25731;SDS011;13585;50.864;4.406;2023-09-08T03:02:06;6.68;;;4.22;;
25731;SDS011;13585;50.864;4.406;2023-09-08T03:04:31;4.95;;;4.45;;
25731;SDS011;13585;50.864;4.406;2023-09-08T03:06:57;4.40;;;4.00;;
25731;SDS011;13585;50.864;4.406;2023-09-08T03:09:23;5.00;;;4.40;;
25731;SDS011;13585;50.864;4.406;2023-09-08T03:11:48;4.32;;;3.75;;
25731;SDS011;13585;50.864;4.406;2023-09-08T03:14:14;4.72;;;4.30;;
25731;SDS011;13585;50.864;4.406;2023-09-08T03:16:39;5.40;;;4.30;;
25731;SDS011;13585;50.864;4.406;2023-09-08T03:19:05;5.65;;;4.43;;
25731;SDS011;13585;50.864;4.406;2023-09-08T03:21:31;6.32;;;3.97;;
25731;SDS011;13585;50.864;4.406;2023-09-08T03:23:56;4.90;;;4.38;;
25731;SDS011;13585;50.864;4.406;2023-09-08T03:26:22;5.00;;;4.07;;
25731;SDS011;13585;50.864;4.406;2023-09-08T03:28:47;6.85;;;4.30;;
25731;SDS011;13585;50.864;4.406;2023-09-08T03:31:13;4.57;;;4.18;;
25731;SDS011;13585;50.864;4.406;2023-09-08T03:33:39;4.70;;;4.20;;
25731;SDS011;13585;50.864;4.406;2023-09-08T03:36:04;4.82;;;4.13;;
25731;SDS011;13585;50.864;4.406;2023-09-08T03:38:30;6.47;;;4.75;;
25731;SDS011;13585;50.864;4.406;2023-09-08T03:40:55;4.80;;;3.65;;
25731;SDS011;13585;50.864;4.406;2023-09-08T03:43:21;4.78;;;4.18;;
25731;SDS011;13585;50.864;4.406;2023-09-08T03:45:47;7.25;;;4.70;;
25731;SDS011;13585;50.864;4.406;2023-09-08T03:48:12;5.85;;;4.60;;
25731;SDS011;13585;50.864;4.406;2023-09-08T03:50:38;6.32;;;4.68;;
25731;SDS011;13585;50.864;4.406;2023-09-08T03:53:03;7.28;;;4.88;;
25731;SDS011;13585;50.864;4.406;2023-09-08T03:55:29;6.55;;;4.40;;
25731;SDS011;13585;50.864;4.406;2023-09-08T03:57:55;6.05;;;4.25;;
25731;SDS011;13585;50.864;4.406;2023-09-08T04:00:20;5.47;;;4.45;;
25731;SDS011;13585;50.864;4.406;2023-09-08T04:02:50;8.45;;;4.65;;
25731;SDS011;13585;50.864;4.406;2023-09-08T04:05:16;6.00;;;4.40;;
25731;SDS011;13585;50.864;4.406;2023-09-08T04:07:42;6.53;;;4.57;;
25731;SDS011;13585;50.864;4.406;2023-09-08T04:10:11;7.28;;;4.82;;
25731;SDS011;13585;50.864;4.406;2023-09-08T04:12:38;6.28;;;4.30;;
25731;SDS011;13585;50.864;4.406;2023-09-08T04:15:04;6.38;;;5.00;;
25731;SDS011;13585;50.864;4.406;2023-09-08T04:17:30;7.50;;;5.28;;
25731;SDS011;13585;50.864;4.406;2023-09-08T04:19:56;6.10;;;4.85;;
25731;SDS011;13585;50.864;4.406;2023-09-08T04:22:21;7.07;;;5.10;;
25731;SDS011;13585;50.864;4.406;2023-09-08T04:24:47;6.30;;;4.90;;
25731;SDS011;13585;50.864;4.406;2023-09-08T04:27:12;7.40;;;4.82;;
25731;SDS011;13585;50.864;4.406;2023-09-08T04:29:38;6.80;;;4.93;;
25731;SDS011;13585;50.864;4.406;2023-09-08T04:32:04;6.75;;;5.07;;
25731;SDS011;13585;50.864;4.406;2023-09-08T04:34:35;7.55;;;4.88;;
25731;SDS011;13585;50.864;4.406;2023-09-08T04:37:02;7.20;;;4.82;;
25731;SDS011;13585;50.864;4.406;2023-09-08T04:39:28;5.95;;;4.88;;
25731;SDS011;13585;50.864;4.406;2023-09-08T04:41:53;6.32;;;4.30;;
25731;SDS011;13585;50.864;4.406;2023-09-08T04:44:19;5.72;;;4.72;;
25731;SDS011;13585;50.864;4.406;2023-09-08T04:46:44;7.20;;;5.07;;
25731;SDS011;13585;50.864;4.406;2023-09-08T04:49:10;7.15;;;4.63;;
25731;SDS011;13585;50.864;4.406;2023-09-08T04:51:36;7.20;;;4.97;;
25731;SDS011;13585;50.864;4.406;2023-09-08T04:54:02;7.90;;;4.93;;
25731;SDS011;13585;50.864;4.406;2023-09-08T04:56:27;8.60;;;4.85;;
25731;SDS011;13585;50.864;4.406;2023-09-08T04:58:53;7.60;;;4.95;;
25731;SDS011;13585;50.864;4.406;2023-09-08T05:01:20;6.22;;;4.80;;
25731;SDS011;13585;50.864;4.406;2023-09-08T05:03:45;5.55;;;4.68;;
25731;SDS011;13585;50.864;4.406;2023-09-08T05:06:11;6.88;;;4.72;;
25731;SDS011;13585;50.864;4.406;2023-09-08T05:08:38;7.10;;;4.28;;
25731;SDS011;13585;50.864;4.406;2023-09-08T05:11:04;6.53;;;4.90;;
25731;SDS011;13585;50.864;4.406;2023-09-08T05:13:30;7.93;;;4.97;;
25731;SDS011;13585;50.864;4.406;2023-09-08T05:15:56;7.65;;;5.00;;
25731;SDS011;13585;50.864;4.406;2023-09-08T05:18:28;6.40;;;5.10;;
25731;SDS011;13585;50.864;4.406;2023-09-08T05:20:53;7.03;;;4.68;;
25731;SDS011;13585;50.864;4.406;2023-09-08T05:23:19;6.75;;;4.45;;
25731;SDS011;13585;50.864;4.406;2023-09-08T05:25:45;6.22;;;4.85;;
25731;SDS011;13585;50.864;4.406;2023-09-08T05:28:10;6.30;;;4.72;;
25731;SDS011;13585;50.864;4.406;2023-09-08T05:30:36;8.55;;;4.75;;
25731;SDS011;13585;50.864;4.406;2023-09-08T05:33:02;6.57;;;4.75;;
25731;SDS011;13585;50.864;4.406;2023-09-08T05:35:27;7.13;;;5.20;;
25731;SDS011;13585;50.864;4.406;2023-09-08T05:37:53;6.07;;;4.20;;
25731;SDS011;13585;50.864;4.406;2023-09-08T05:40:18;9.65;;;4.70;;
25731;SDS011;13585;50.864;4.406;2023-09-08T05:42:46;5.85;;;5.20;;
25731;SDS011;13585;50.864;4.406;2023-09-08T05:45:11;6.63;;;4.80;;
25731;SDS011;13585;50.864;4.406;2023-09-08T05:47:37;6.20;;;4.70;;
25731;SDS011;13585;50.864;4.406;2023-09-08T05:50:03;6.55;;;4.95;;
25731;SDS011;13585;50.864;4.406;2023-09-08T05:52:28;10.63;;;5.05;;
25731;SDS011;13585;50.864;4.406;2023-09-08T05:54:54;7.25;;;4.90;;
25731;SDS011;13585;50.864;4.406;2023-09-08T05:57:20;5.25;;;4.50;;
25731;SDS011;13585;50.864;4.406;2023-09-08T05:59:45;9.48;;;5.20;;
25731;SDS011;13585;50.864;4.406;2023-09-08T06:02:11;7.78;;;4.75;;
25731;SDS011;13585;50.864;4.406;2023-09-08T06:04:36;6.72;;;4.82;;
25731;SDS011;13585;50.864;4.406;2023-09-08T06:07:02;6.82;;;5.20;;
25731;SDS011;13585;50.864;4.406;2023-09-08T06:09:27;4.97;;;4.47;;
25731;SDS011;13585;50.864;4.406;2023-09-08T06:11:53;8.20;;;4.90;;
25731;SDS011;13585;50.864;4.406;2023-09-08T06:14:19;6.90;;;4.70;;
25731;SDS011;13585;50.864;4.406;2023-09-08T06:16:44;5.95;;;4.70;;
25731;SDS011;13585;50.864;4.406;2023-09-08T06:19:11;6.95;;;5.30;;
25731;SDS011;13585;50.864;4.406;2023-09-08T06:21:37;6.50;;;4.80;;
25731;SDS011;13585;50.864;4.406;2023-09-08T06:24:03;7.45;;;4.72;;
25731;SDS011;13585;50.864;4.406;2023-09-08T06:26:28;7.10;;;4.68;;
25731;SDS011;13585;50.864;4.406;2023-09-08T06:28:54;7.97;;;4.90;;
25731;SDS011;13585;50.864;4.406;2023-09-08T06:31:20;8.85;;;5.60;;
25731;SDS011;13585;50.864;4.406;2023-09-08T06:33:45;6.40;;;4.78;;
25731;SDS011;13585;50.864;4.406;2023-09-08T06:36:11;5.82;;;4.47;;
25731;SDS011;13585;50.864;4.406;2023-09-08T06:38:36;8.90;;;4.75;;
25731;SDS011;13585;50.864;4.406;2023-09-08T06:41:08;5.63;;;4.35;;
25731;SDS011;13585;50.864;4.406;2023-09-08T06:43:37;8.00;;;4.82;;
25731;SDS011;13585;50.864;4.406;2023-09-08T06:46:03;6.13;;;4.85;;
25731;SDS011;13585;50.864;4.406;2023-09-08T06:48:29;8.07;;;4.97;;
25731;SDS011;13585;50.864;4.406;2023-09-08T06:50:55;8.02;;;4.70;;
25731;SDS011;13585;50.864;4.406;2023-09-08T06:53:21;6.45;;;4.63;;
25731;SDS011;13585;50.864;4.406;2023-09-08T06:55:47;5.70;;;4.32;;
25731;SDS011;13585;50.864;4.406;2023-09-08T06:58:13;7.35;;;4.53;;
25731;SDS011;13585;50.864;4.406;2023-09-08T07:00:41;5.18;;;4.53;;
25731;SDS011;13585;50.864;4.406;2023-09-08T07:03:07;5.90;;;4.38;;
25731;SDS011;13585;50.864;4.406;2023-09-08T07:05:34;5.68;;;5.07;;
25731;SDS011;13585;50.864;4.406;2023-09-08T07:07:59;6.72;;;4.80;;
25731;SDS011;13585;50.864;4.406;2023-09-08T07:10:25;6.03;;;4.70;;
25731;SDS011;13585;50.864;4.406;2023-09-08T07:12:51;7.10;;;5.00;;
25731;SDS011;13585;50.864;4.406;2023-09-08T07:15:16;6.03;;;4.50;;
25731;SDS011;13585;50.864;4.406;2023-09-08T07:17:42;5.10;;;4.35;;
25731;SDS011;13585;50.864;4.406;2023-09-08T07:20:08;4.85;;;4.32;;
25731;SDS011;13585;50.864;4.406;2023-09-08T07:22:34;4.85;;;3.55;;
25731;SDS011;13585;50.864;4.406;2023-09-08T07:24:59;8.18;;;4.45;;
25731;SDS011;13585;50.864;4.406;2023-09-08T07:27:25;4.85;;;4.22;;
25731;SDS011;13585;50.864;4.406;2023-09-08T07:29:51;6.03;;;4.25;;
25731;SDS011;13585;50.864;4.406;2023-09-08T07:32:16;6.13;;;4.40;;
25731;SDS011;13585;50.864;4.406;2023-09-08T07:34:43;4.65;;;4.20;;
25731;SDS011;13585;50.864;4.406;2023-09-08T07:37:08;9.48;;;4.65;;
25731;SDS011;13585;50.864;4.406;2023-09-08T07:39:34;5.05;;;4.38;;
25731;SDS011;13585;50.864;4.406;2023-09-08T07:42:00;6.25;;;4.53;;
25731;SDS011;13585;50.864;4.406;2023-09-08T07:44:26;7.20;;;4.47;;
25731;SDS011;13585;50.864;4.406;2023-09-08T07:46:52;5.30;;;4.63;;
25731;SDS011;13585;50.864;4.406;2023-09-08T07:49:20;7.38;;;4.55;;
25731;SDS011;13585;50.864;4.406;2023-09-08T07:51:45;5.68;;;5.05;;
25731;SDS011;13585;50.864;4.406;2023-09-08T07:54:12;10.68;;;4.43;;
25731;SDS011;13585;50.864;4.406;2023-09-08T07:56:38;5.88;;;4.70;;
25731;SDS011;13585;50.864;4.406;2023-09-08T07:59:05;7.93;;;4.53;;
25731;SDS011;13585;50.864;4.406;2023-09-08T08:01:32;5.70;;;4.43;;
25731;SDS011;13585;50.864;4.406;2023-09-08T08:03:58;5.68;;;4.68;;
25731;SDS011;13585;50.864;4.406;2023-09-08T08:06:23;7.40;;;4.57;;
25731;SDS011;13585;50.864;4.406;2023-09-08T08:08:49;5.82;;;4.63;;
25731;SDS011;13585;50.864;4.406;2023-09-08T08:11:15;8.10;;;4.50;;
25731;SDS011;13585;50.864;4.406;2023-09-08T08:13:42;8.73;;;4.85;;
25731;SDS011;13585;50.864;4.406;2023-09-08T08:16:08;4.88;;;4.13;;
25731;SDS011;13585;50.864;4.406;2023-09-08T08:18:34;6.03;;;4.43;;
25731;SDS011;13585;50.864;4.406;2023-09-08T08:21:00;6.30;;;4.63;;
25731;SDS011;13585;50.864;4.406;2023-09-08T08:23:28;6.25;;;4.40;;
25731;SDS011;13585;50.864;4.406;2023-09-08T08:25:55;6.15;;;4.43;;
25731;SDS011;13585;50.864;4.406;2023-09-08T08:28:21;8.93;;;4.90;;
25731;SDS011;13585;50.864;4.406;2023-09-08T08:30:46;5.85;;;4.70;;
25731;SDS011;13585;50.864;4.406;2023-09-08T08:33:12;5.65;;;4.63;;
25731;SDS011;13585;50.864;4.406;2023-09-08T08:35:39;5.03;;;4.40;;
25731;SDS011;13585;50.864;4.406;2023-09-08T08:38:05;7.05;;;4.50;;
25731;SDS011;13585;50.864;4.406;2023-09-08T08:43:07;6.10;;;4.82;;
25731;SDS011;13585;50.864;4.406;2023-09-08T08:45:33;6.88;;;5.05;;
25731;SDS011;13585;50.864;4.406;2023-09-08T08:48:23;5.78;;;4.50;;
25731;SDS011;13585;50.864;4.406;2023-09-08T08:50:54;6.18;;;4.63;;
25731;SDS011;13585;50.864;4.406;2023-09-08T08:53:31;7.45;;;4.30;;
25731;SDS011;13585;50.864;4.406;2023-09-08T08:55:58;6.65;;;4.82;;
25731;SDS011;13585;50.864;4.406;2023-09-08T08:58:25;7.88;;;4.82;;
25731;SDS011;13585;50.864;4.406;2023-09-08T09:00:53;5.47;;;4.53;;
25731;SDS011;13585;50.864;4.406;2023-09-08T09:03:21;7.55;;;4.90;;
25731;SDS011;13585;50.864;4.406;2023-09-08T09:05:51;7.07;;;5.00;;
25731;SDS011;13585;50.864;4.406;2023-09-08T09:08:17;5.88;;;4.90;;
25731;SDS011;13585;50.864;4.406;2023-09-08T09:10:43;9.05;;;5.07;;
25731;SDS011;13585;50.864;4.406;2023-09-08T09:13:09;7.25;;;5.05;;
25731;SDS011;13585;50.864;4.406;2023-09-08T09:15:34;9.48;;;4.95;;
25731;SDS011;13585;50.864;4.406;2023-09-08T09:18:04;6.38;;;5.00;;
25731;SDS011;13585;50.864;4.406;2023-09-08T09:20:31;6.97;;;5.13;;
25731;SDS011;13585;50.864;4.406;2023-09-08T09:22:57;5.93;;;4.95;;
25731;SDS011;13585;50.864;4.406;2023-09-08T09:25:23;7.95;;;5.28;;
25731;SDS011;13585;50.864;4.406;2023-09-08T09:27:54;6.13;;;4.80;;
25731;SDS011;13585;50.864;4.406;2023-09-08T09:30:21;7.82;;;5.00;;
25731;SDS011;13585;50.864;4.406;2023-09-08T09:32:48;7.07;;;4.78;;
25731;SDS011;13585;50.864;4.406;2023-09-08T09:35:38;8.30;;;4.95;;
25731;SDS011;13585;50.864;4.406;2023-09-08T09:40:30;8.82;;;5.25;;
25731;SDS011;13585;50.864;4.406;2023-09-08T09:42:57;6.75;;;4.47;;
25731;SDS011;13585;50.864;4.406;2023-09-08T09:45:25;7.03;;;4.85;;
25731;SDS011;13585;50.864;4.406;2023-09-08T09:47:51;6.68;;;4.97;;
25731;SDS011;13585;50.864;4.406;2023-09-08T09:50:27;10.23;;;5.43;;
25731;SDS011;13585;50.864;4.406;2023-09-08T09:52:56;12.93;;;5.40;;
25731;SDS011;13585;50.864;4.406;2023-09-08T09:55:24;9.93;;;4.88;;
25731;SDS011;13585;50.864;4.406;2023-09-08T09:57:50;7.82;;;5.22;;
25731;SDS011;13585;50.864;4.406;2023-09-08T10:00:20;7.35;;;5.32;;
25731;SDS011;13585;50.864;4.406;2023-09-08T10:02:46;8.45;;;5.47;;
25731;SDS011;13585;50.864;4.406;2023-09-08T10:05:12;14.20;;;5.75;;
25731;SDS011;13585;50.864;4.406;2023-09-08T10:07:41;12.35;;;5.90;;
25731;SDS011;13585;50.864;4.406;2023-09-08T10:10:08;13.88;;;5.85;;
25731;SDS011;13585;50.864;4.406;2023-09-08T10:12:37;9.57;;;5.80;;
25731;SDS011;13585;50.864;4.406;2023-09-08T10:15:05;11.48;;;5.65;;
25731;SDS011;13585;50.864;4.406;2023-09-08T10:17:31;10.63;;;5.78;;
25731;SDS011;13585;50.864;4.406;2023-09-08T10:20:00;8.13;;;5.30;;
25731;SDS011;13585;50.864;4.406;2023-09-08T10:22:33;10.88;;;5.47;;
25731;SDS011;13585;50.864;4.406;2023-09-08T10:25:02;9.43;;;5.50;;
25731;SDS011;13585;50.864;4.406;2023-09-08T10:27:30;11.23;;;5.10;;
25731;SDS011;13585;50.864;4.406;2023-09-08T10:29:57;10.30;;;5.32;;
25731;SDS011;13585;50.864;4.406;2023-09-08T10:32:25;9.75;;;5.22;;
25731;SDS011;13585;50.864;4.406;2023-09-08T10:34:51;7.75;;;5.50;;
25731;SDS011;13585;50.864;4.406;2023-09-08T10:37:22;10.40;;;5.00;;
25731;SDS011;13585;50.864;4.406;2023-09-08T10:39:54;9.48;;;5.32;;
25731;SDS011;13585;50.864;4.406;2023-09-08T10:42:20;9.10;;;5.57;;
25731;SDS011;13585;50.864;4.406;2023-09-08T10:47:30;10.07;;;5.90;;
25731;SDS011;13585;50.864;4.406;2023-09-08T10:52:25;7.65;;;4.90;;
25731;SDS011;13585;50.864;4.406;2023-09-08T10:54:52;8.63;;;5.50;;
25731;SDS011;13585;50.864;4.406;2023-09-08T10:57:23;8.60;;;4.93;;
25731;SDS011;13585;50.864;4.406;2023-09-08T10:59:57;7.72;;;5.28;;
25731;SDS011;13585;50.864;4.406;2023-09-08T11:02:47;10.05;;;5.40;;
25731;SDS011;13585;50.864;4.406;2023-09-08T11:05:15;13.63;;;5.82;;
25731;SDS011;13585;50.864;4.406;2023-09-08T11:07:42;8.20;;;5.25;;
25731;SDS011;13585;50.864;4.406;2023-09-08T11:10:12;8.48;;;5.18;;
25731;SDS011;13585;50.864;4.406;2023-09-08T11:12:38;8.07;;;4.80;;
25731;SDS011;13585;50.864;4.406;2023-09-08T11:17:32;8.02;;;4.95;;
25731;SDS011;13585;50.864;4.406;2023-09-08T11:19:59;8.70;;;4.93;;
25731;SDS011;13585;50.864;4.406;2023-09-08T11:22:25;6.32;;;5.10;;
25731;SDS011;13585;50.864;4.406;2023-09-08T11:24:58;4.80;;;4.07;;
25731;SDS011;13585;50.864;4.406;2023-09-08T11:27:23;8.70;;;4.75;;
25731;SDS011;13585;50.864;4.406;2023-09-08T11:29:49;6.47;;;4.57;;
25731;SDS011;13585;50.864;4.406;2023-09-08T11:32:15;6.57;;;4.53;;
25731;SDS011;13585;50.864;4.406;2023-09-08T11:34:41;6.70;;;4.50;;
25731;SDS011;13585;50.864;4.406;2023-09-08T11:37:10;6.50;;;4.63;;
25731;SDS011;13585;50.864;4.406;2023-09-08T11:39:44;8.63;;;4.13;;
25731;SDS011;13585;50.864;4.406;2023-09-08T11:42:13;7.00;;;4.43;;
25731;SDS011;13585;50.864;4.406;2023-09-08T11:44:40;6.28;;;3.85;;
25731;SDS011;13585;50.864;4.406;2023-09-08T11:47:07;7.10;;;4.30;;
25731;SDS011;13585;50.864;4.406;2023-09-08T11:49:37;7.80;;;4.40;;
25731;SDS011;13585;50.864;4.406;2023-09-08T11:52:10;8.45;;;4.30;;
25731;SDS011;13585;50.864;4.406;2023-09-08T11:54:36;10.85;;;5.20;;
25731;SDS011;13585;50.864;4.406;2023-09-08T11:57:06;7.15;;;4.13;;
25731;SDS011;13585;50.864;4.406;2023-09-08T11:59:37;8.73;;;4.00;;
25731;SDS011;13585;50.864;4.406;2023-09-08T12:02:09;11.98;;;4.15;;
25731;SDS011;13585;50.864;4.406;2023-09-08T12:04:35;10.23;;;3.40;;
25731;SDS011;13585;50.864;4.406;2023-09-08T12:07:01;6.40;;;3.70;;
25731;SDS011;13585;50.864;4.406;2023-09-08T12:09:49;6.53;;;3.83;;
25731;SDS011;13585;50.864;4.406;2023-09-08T12:12:15;5.75;;;3.50;;
25731;SDS011;13585;50.864;4.406;2023-09-08T12:14:41;9.25;;;3.55;;
25731;SDS011;13585;50.864;4.406;2023-09-08T12:17:08;8.00;;;3.30;;
25731;SDS011;13585;50.864;4.406;2023-09-08T12:19:34;5.13;;;2.92;;
25731;SDS011;13585;50.864;4.406;2023-09-08T12:22:03;5.75;;;3.58;;
25731;SDS011;13585;50.864;4.406;2023-09-08T12:27:21;9.80;;;3.72;;
25731;SDS011;13585;50.864;4.406;2023-09-08T12:29:57;9.93;;;3.75;;
25731;SDS011;13585;50.864;4.406;2023-09-08T12:32:26;7.93;;;3.60;;
25731;SDS011;13585;50.864;4.406;2023-09-08T12:34:53;7.88;;;3.65;;
25731;SDS011;13585;50.864;4.406;2023-09-08T12:37:20;6.13;;;3.65;;
25731;SDS011;13585;50.864;4.406;2023-09-08T12:39:49;5.68;;;3.70;;
25731;SDS011;13585;50.864;4.406;2023-09-08T12:42:18;10.13;;;3.78;;
25731;SDS011;13585;50.864;4.406;2023-09-08T12:44:44;8.85;;;3.50;;
25731;SDS011;13585;50.864;4.406;2023-09-08T12:47:10;7.68;;;3.47;;
25731;SDS011;13585;50.864;4.406;2023-09-08T12:49:39;7.82;;;4.10;;
25731;SDS011;13585;50.864;4.406;2023-09-08T12:52:05;7.90;;;3.78;;
25731;SDS011;13585;50.864;4.406;2023-09-08T12:54:31;7.22;;;3.47;;
25731;SDS011;13585;50.864;4.406;2023-09-08T12:56:57;7.40;;;3.20;;
25731;SDS011;13585;50.864;4.406;2023-09-08T12:59:22;6.05;;;3.08;;
25731;SDS011;13585;50.864;4.406;2023-09-08T13:01:48;9.90;;;3.58;;
25731;SDS011;13585;50.864;4.406;2023-09-08T13:04:14;11.98;;;3.70;;
25731;SDS011;13585;50.864;4.406;2023-09-08T13:06:39;9.18;;;3.58;;
25731;SDS011;13585;50.864;4.406;2023-09-08T13:09:05;6.10;;;3.70;;
25731;SDS011;13585;50.864;4.406;2023-09-08T13:11:32;6.30;;;3.25;;
25731;SDS011;13585;50.864;4.406;2023-09-08T13:13:58;6.38;;;3.58;;
25731;SDS011;13585;50.864;4.406;2023-09-08T13:16:24;10.48;;;3.60;;
25731;SDS011;13585;50.864;4.406;2023-09-08T13:18:50;8.05;;;3.47;;
25731;SDS011;13585;50.864;4.406;2023-09-08T13:21:16;7.18;;;3.50;;
25731;SDS011;13585;50.864;4.406;2023-09-08T13:23:42;7.40;;;3.58;;
25731;SDS011;13585;50.864;4.406;2023-09-08T13:26:07;9.77;;;3.95;;
25731;SDS011;13585;50.864;4.406;2023-09-08T13:28:33;11.93;;;3.38;;
25731;SDS011;13585;50.864;4.406;2023-09-08T13:30:59;6.85;;;3.38;;
25731;SDS011;13585;50.864;4.406;2023-09-08T13:33:24;11.85;;;3.67;;
25731;SDS011;13585;50.864;4.406;2023-09-08T13:35:50;12.00;;;3.85;;
25731;SDS011;13585;50.864;4.406;2023-09-08T13:38:16;15.35;;;3.88;;
25731;SDS011;13585;50.864;4.406;2023-09-08T13:40:41;8.93;;;4.28;;
25731;SDS011;13585;50.864;4.406;2023-09-08T13:43:07;15.27;;;4.28;;
25731;SDS011;13585;50.864;4.406;2023-09-08T13:45:33;11.77;;;3.88;;
25731;SDS011;13585;50.864;4.406;2023-09-08T13:47:58;12.52;;;4.13;;
25731;SDS011;13585;50.864;4.406;2023-09-08T13:50:24;14.73;;;4.20;;
25731;SDS011;13585;50.864;4.406;2023-09-08T13:52:50;9.55;;;3.65;;
25731;SDS011;13585;50.864;4.406;2023-09-08T13:55:16;12.80;;;3.90;;
25731;SDS011;13585;50.864;4.406;2023-09-08T13:57:41;11.63;;;3.88;;
25731;SDS011;13585;50.864;4.406;2023-09-08T14:00:07;15.35;;;4.70;;
25731;SDS011;13585;50.864;4.406;2023-09-08T14:02:33;12.55;;;4.60;;
25731;SDS011;13585;50.864;4.406;2023-09-08T14:04:59;14.45;;;4.20;;
25731;SDS011;13585;50.864;4.406;2023-09-08T14:07:25;13.32;;;3.72;;
25731;SDS011;13585;50.864;4.406;2023-09-08T14:09:51;13.63;;;3.88;;
25731;SDS011;13585;50.864;4.406;2023-09-08T14:12:16;9.80;;;4.18;;
25731;SDS011;13585;50.864;4.406;2023-09-08T14:14:42;16.98;;;3.90;;
25731;SDS011;13585;50.864;4.406;2023-09-08T14:17:07;12.90;;;4.50;;
25731;SDS011;13585;50.864;4.406;2023-09-08T14:19:33;13.82;;;4.22;;
25731;SDS011;13585;50.864;4.406;2023-09-08T14:21:58;18.88;;;4.13;;
25731;SDS011;13585;50.864;4.406;2023-09-08T14:24:24;11.70;;;4.05;;
25731;SDS011;13585;50.864;4.406;2023-09-08T14:26:50;10.07;;;4.38;;
25731;SDS011;13585;50.864;4.406;2023-09-08T14:29:17;14.23;;;4.07;;
25731;SDS011;13585;50.864;4.406;2023-09-08T14:31:42;8.07;;;3.70;;
25731;SDS011;13585;50.864;4.406;2023-09-08T14:34:08;12.93;;;4.25;;
25731;SDS011;13585;50.864;4.406;2023-09-08T14:36:34;16.17;;;4.68;;
25731;SDS011;13585;50.864;4.406;2023-09-08T14:38:59;10.00;;;4.10;;
25731;SDS011;13585;50.864;4.406;2023-09-08T14:41:25;11.10;;;4.35;;
25731;SDS011;13585;50.864;4.406;2023-09-08T14:43:54;12.07;;;4.20;;
25731;SDS011;13585;50.864;4.406;2023-09-08T14:46:29;18.50;;;4.53;;
25731;SDS011;13585;50.864;4.406;2023-09-08T14:48:54;9.85;;;4.35;;
25731;SDS011;13585;50.864;4.406;2023-09-08T14:51:20;14.50;;;4.38;;
25731;SDS011;13585;50.864;4.406;2023-09-08T14:53:45;13.70;;;4.30;;
25731;SDS011;13585;50.864;4.406;2023-09-08T14:56:11;15.57;;;4.93;;
25731;SDS011;13585;50.864;4.406;2023-09-08T14:58:37;14.95;;;4.18;;
25731;SDS011;13585;50.864;4.406;2023-09-08T15:01:03;16.88;;;4.78;;
25731;SDS011;13585;50.864;4.406;2023-09-08T15:03:32;14.63;;;4.45;;